createdAt,value
2022-12-04T03:26:00.015Z,57.50
2022-12-04T03:26:31.504Z,57.70
2022-12-04T03:27:02.963Z,57.90
2022-12-04T03:27:34.423Z,58.00
2022-12-04T03:28:05.887Z,58.00
2022-12-04T03:28:37.344Z,58.10
2022-12-04T03:29:08.830Z,58.20
2022-12-04T03:29:40.316Z,58.30
2022-12-04T03:30:11.797Z,58.40
2022-12-04T03:30:43.337Z,58.50
2022-12-04T03:31:14.954Z,58.60
2022-12-04T04:10:47.333Z,59.30
2022-12-04T04:11:18.800Z,60.20
2022-12-04T04:11:50.273Z,60.20
2022-12-04T04:12:21.741Z,60.30
2022-12-04T04:12:53.199Z,60.50
2022-12-04T04:13:24.666Z,60.50
2022-12-04T04:13:56.182Z,60.60
2022-12-04T04:14:27.670Z,60.70
2022-12-04T04:14:59.161Z,60.80
2022-12-04T04:15:30.701Z,60.90
2022-12-04T04:16:02.297Z,60.90
2022-12-04T04:16:33.823Z,60.90
2022-12-04T04:17:05.286Z,60.90
2022-12-04T04:17:38.772Z,61.00
2022-12-04T04:18:10.500Z,60.90
2022-12-04T04:18:41.960Z,60.90
2022-12-04T04:19:13.414Z,61.00
2022-12-04T04:19:44.879Z,60.60
2022-12-04T04:20:16.352Z,60.70
2022-12-04T04:20:47.853Z,60.70
2022-12-04T04:21:19.323Z,60.70
2022-12-04T04:21:50.880Z,60.70
2022-12-04T04:22:22.411Z,60.70
2022-12-04T04:22:56.134Z,60.80
2022-12-04T04:23:27.896Z,60.80
2022-12-04T04:23:59.374Z,60.80
2022-12-04T04:24:30.849Z,60.80
2022-12-04T04:25:02.335Z,60.80
2022-12-04T04:25:33.816Z,61.70
2022-12-04T04:26:05.327Z,60.90
2022-12-04T04:26:36.796Z,60.90
2022-12-04T04:27:08.304Z,61.00
2022-12-04T04:27:39.795Z,60.90
2022-12-04T04:28:11.260Z,61.00
2022-12-04T04:28:42.732Z,61.00
2022-12-04T04:29:14.195Z,61.70
2022-12-04T04:29:52.010Z,61.70
2022-12-04T04:30:24.154Z,61.00
2022-12-04T04:30:55.740Z,60.90
2022-12-04T04:31:27.282Z,60.90
2022-12-04T04:31:58.830Z,61.00
2022-12-04T04:32:30.302Z,61.00
2022-12-04T04:33:01.763Z,61.00
2022-12-04T04:33:33.305Z,61.00
2022-12-04T04:34:04.772Z,61.00
2022-12-04T04:34:36.241Z,61.00
2022-12-04T04:35:07.710Z,61.00
2022-12-04T04:35:39.200Z,61.00
2022-12-04T04:36:10.676Z,61.20
2022-12-04T04:36:42.208Z,61.00
2022-12-04T04:37:13.683Z,61.00
2022-12-04T04:37:45.165Z,61.00
2022-12-04T04:38:16.631Z,61.00
2022-12-04T04:38:48.101Z,60.90
2022-12-04T04:39:19.573Z,61.00
2022-12-04T04:39:51.070Z,61.00
2022-12-04T04:40:22.535Z,61.00
2022-12-04T04:40:53.995Z,61.00
2022-12-04T04:41:25.460Z,61.00
2022-12-04T04:41:56.937Z,60.90
2022-12-04T04:42:28.531Z,61.00
2022-12-04T04:43:00.064Z,61.00
2022-12-04T04:43:31.533Z,61.00
2022-12-04T04:44:03.027Z,61.10
2022-12-04T04:44:34.514Z,61.10
2022-12-04T04:45:05.993Z,61.10
2022-12-04T04:45:37.502Z,61.10
2022-12-04T04:46:09.034Z,61.10
2022-12-04T04:46:40.629Z,62.00
2022-12-04T04:47:12.122Z,62.00
2022-12-04T04:47:43.588Z,61.20
2022-12-04T04:48:15.048Z,61.20
2022-12-04T04:48:46.529Z,61.10
2022-12-04T04:49:17.995Z,61.10
2022-12-04T04:49:49.486Z,61.10
2022-12-04T04:50:20.945Z,61.00
2022-12-04T04:50:52.441Z,61.00
2022-12-04T04:51:23.911Z,61.10
2022-12-04T04:51:55.441Z,60.90
2022-12-04T04:52:26.972Z,61.00
2022-12-04T04:52:58.500Z,61.00
2022-12-04T04:53:29.980Z,61.00
2022-12-04T04:54:01.443Z,61.00
2022-12-04T04:54:32.907Z,61.00
2022-12-04T04:55:04.452Z,61.00
2022-12-04T04:55:36.047Z,61.00
2022-12-04T04:56:07.550Z,61.00
2022-12-04T04:56:39.007Z,61.00
2022-12-04T04:57:10.492Z,61.00
2022-12-04T04:57:41.961Z,61.10
2022-12-04T04:58:13.455Z,61.00
2022-12-04T04:58:44.923Z,61.00
2022-12-04T04:59:16.394Z,61.00
2022-12-04T04:59:47.867Z,61.00
2022-12-04T05:00:19.333Z,61.10
2022-12-04T05:00:50.814Z,61.00
2022-12-04T05:01:22.339Z,61.00
2022-12-04T05:01:53.894Z,61.10
2022-12-04T05:02:25.383Z,61.10
2022-12-04T05:02:56.970Z,61.00
2022-12-04T05:03:28.520Z,61.00
2022-12-04T05:04:00.001Z,61.00
2022-12-04T05:04:31.468Z,61.00
2022-12-04T05:05:02.973Z,61.00
2022-12-04T05:05:34.468Z,61.10
2022-12-04T05:06:05.940Z,61.00
2022-12-04T05:06:37.407Z,61.00
2022-12-04T05:07:08.881Z,61.00
2022-12-04T05:07:40.408Z,61.00
2022-12-04T05:08:11.949Z,61.10
2022-12-04T05:08:43.471Z,61.10
2022-12-04T05:09:14.956Z,61.00
2022-12-04T05:09:46.434Z,61.10
2022-12-04T05:10:17.894Z,61.10
2022-12-04T05:10:49.363Z,61.10
2022-12-04T05:11:20.819Z,61.20
2022-12-04T05:11:52.284Z,61.10
2022-12-04T05:12:23.754Z,61.10
2022-12-04T05:12:55.219Z,61.10
2022-12-04T05:13:26.691Z,61.10
2022-12-04T05:13:58.197Z,61.10
2022-12-04T05:14:29.659Z,61.10
2022-12-04T05:15:01.130Z,61.10
2022-12-04T05:15:32.618Z,61.10
2022-12-04T05:16:04.217Z,61.00
2022-12-04T05:16:35.823Z,61.00
2022-12-04T05:17:12.276Z,61.00
2022-12-04T05:17:44.323Z,61.00
2022-12-04T05:18:15.803Z,61.00
2022-12-04T05:18:47.263Z,61.00
2022-12-04T05:19:18.735Z,61.10
2022-12-04T05:19:50.230Z,61.10
2022-12-04T05:20:21.696Z,61.00
2022-12-04T05:20:53.161Z,61.10
2022-12-04T05:21:24.627Z,61.00
2022-12-04T05:21:56.093Z,61.00
2022-12-04T05:22:27.565Z,61.00
2022-12-04T05:22:59.032Z,61.10
2022-12-04T05:23:30.488Z,61.00
2022-12-04T05:24:01.966Z,61.10
2022-12-04T05:24:33.461Z,61.10
2022-12-04T05:25:04.950Z,61.10
2022-12-04T05:25:36.420Z,61.00
2022-12-04T05:26:07.909Z,61.10
2022-12-04T05:26:39.375Z,61.00
2022-12-04T05:27:10.835Z,61.10
2022-12-04T05:27:42.349Z,61.00
2022-12-04T05:28:13.825Z,61.10
2022-12-04T05:28:45.289Z,61.10
2022-12-04T05:29:16.856Z,61.10
2022-12-04T05:29:48.456Z,61.10
2022-12-04T05:30:19.934Z,61.20
2022-12-04T05:30:51.458Z,61.40
2022-12-04T05:31:23.011Z,61.40
2022-12-04T05:31:54.488Z,61.50
2022-12-04T05:32:25.947Z,62.40
2022-12-04T05:32:57.461Z,61.60
2022-12-04T05:33:28.922Z,61.70
2022-12-04T05:34:00.392Z,61.70
2022-12-04T05:34:31.869Z,61.80
2022-12-04T05:35:07.798Z,61.70
2022-12-04T05:35:42.388Z,61.80
2022-12-04T05:36:13.863Z,61.80
2022-12-04T05:36:45.340Z,61.70
2022-12-04T05:37:16.807Z,61.70
2022-12-04T05:37:48.270Z,61.70
2022-12-04T05:38:19.770Z,61.70
2022-12-04T05:38:51.232Z,61.70
2022-12-04T05:39:22.695Z,61.60
2022-12-04T05:39:54.645Z,61.70
2022-12-04T05:40:26.370Z,61.60
2022-12-04T05:40:57.836Z,61.60
2022-12-04T05:41:29.304Z,61.60
2022-12-04T05:42:00.764Z,61.90
2022-12-04T05:42:32.260Z,61.70
2022-12-04T05:43:03.751Z,61.70
2022-12-04T05:43:35.215Z,61.70
2022-12-04T05:44:06.684Z,61.70
2022-12-04T05:44:38.153Z,61.70
2022-12-04T05:45:09.620Z,61.70
2022-12-04T05:45:41.116Z,61.70
2022-12-04T05:46:12.668Z,61.70
2022-12-04T05:46:44.246Z,61.70
2022-12-04T05:47:15.744Z,61.70
2022-12-04T05:47:47.208Z,61.80
2022-12-04T05:48:18.668Z,61.70
2022-12-04T05:48:50.127Z,61.70
2022-12-04T05:49:21.672Z,61.70
2022-12-04T05:49:53.500Z,61.70
2022-12-04T05:50:25.204Z,61.60
2022-12-04T05:50:56.678Z,61.70
2022-12-04T05:51:28.145Z,61.70
2022-12-04T05:51:59.616Z,61.70
2022-12-04T05:52:31.123Z,61.70
2022-12-04T05:53:02.595Z,61.70
2022-12-04T05:53:34.079Z,61.70
2022-12-04T05:54:05.554Z,61.70
2022-12-04T05:54:37.025Z,61.70
2022-12-04T05:55:08.495Z,61.50
2022-12-04T05:55:39.961Z,61.60
2022-12-04T05:56:11.430Z,61.60
2022-12-04T05:56:42.900Z,61.50
2022-12-04T05:57:14.361Z,61.60
2022-12-04T05:57:45.848Z,61.70
2022-12-04T05:58:17.313Z,61.70
2022-12-04T05:58:48.781Z,61.70
2022-12-04T05:59:20.253Z,62.50
2022-12-04T05:59:51.935Z,61.60
2022-12-04T06:00:23.413Z,61.50
2022-12-04T06:00:54.876Z,61.70
2022-12-04T06:01:26.363Z,61.60
2022-12-04T06:01:57.923Z,61.60
2022-12-04T06:02:29.499Z,61.70
2022-12-04T06:03:01.085Z,61.70
2022-12-04T06:03:32.728Z,61.70
2022-12-04T06:04:04.220Z,61.60
2022-12-04T06:04:35.680Z,61.70
2022-12-04T06:05:07.140Z,61.50
2022-12-04T06:05:38.647Z,61.60
2022-12-04T06:06:10.153Z,61.50
2022-12-04T06:06:41.693Z,61.50
2022-12-04T06:07:13.172Z,61.40
2022-12-04T06:07:44.717Z,61.40
2022-12-04T06:08:16.322Z,61.40
2022-12-04T06:08:47.847Z,61.30
2022-12-04T06:09:19.415Z,61.30
2022-12-04T06:09:50.904Z,61.20
2022-12-04T06:10:22.413Z,61.20
2022-12-04T06:10:53.881Z,61.20
2022-12-04T06:11:25.367Z,61.40
2022-12-04T06:11:56.841Z,61.40
2022-12-04T06:12:28.312Z,61.40
2022-12-04T06:12:59.777Z,61.20
2022-12-04T06:13:31.240Z,61.30
2022-12-04T06:14:02.705Z,61.40
2022-12-04T06:14:39.298Z,61.40
2022-12-04T06:15:11.316Z,61.30
2022-12-04T06:15:42.786Z,61.40
2022-12-04T06:16:14.411Z,61.30
2022-12-04T06:16:45.996Z,61.30
2022-12-04T06:17:17.573Z,61.40
2022-12-04T06:17:49.042Z,61.30
2022-12-04T06:18:20.522Z,61.40
2022-12-04T06:18:51.981Z,61.50
2022-12-04T06:19:23.456Z,61.60
2022-12-04T06:19:55.278Z,61.50
2022-12-04T06:20:26.990Z,61.50
2022-12-04T06:20:58.601Z,61.60
2022-12-04T06:21:30.126Z,61.60
2022-12-04T06:22:01.660Z,61.60
2022-12-04T06:22:33.141Z,61.70
2022-12-04T06:23:04.609Z,61.60
2022-12-04T06:23:36.070Z,61.70
2022-12-04T06:24:07.548Z,61.60
2022-12-04T06:24:39.020Z,61.60
2022-12-04T06:25:10.494Z,61.70
2022-12-04T06:25:41.973Z,61.50
2022-12-04T06:26:13.457Z,61.50
2022-12-04T06:27:11.368Z,61.50
2022-12-04T06:27:36.428Z,61.50
2022-12-04T06:28:07.900Z,61.50
2022-12-04T06:28:39.359Z,61.50
2022-12-04T06:29:10.843Z,61.60
2022-12-04T06:29:42.309Z,61.50
2022-12-04T06:30:13.783Z,61.50
2022-12-04T06:30:45.248Z,61.50
2022-12-04T06:31:16.764Z,61.50
2022-12-04T06:31:48.331Z,61.50
2022-12-04T06:32:21.940Z,61.50
2022-12-04T06:32:53.712Z,61.60
2022-12-04T06:33:25.181Z,61.60
2022-12-04T06:33:56.793Z,61.50
2022-12-04T06:34:28.268Z,61.50
2022-12-04T06:34:59.748Z,62.30
2022-12-04T06:35:31.210Z,61.50
2022-12-04T06:36:02.691Z,61.60
2022-12-04T06:36:34.211Z,61.50
2022-12-04T06:37:05.715Z,61.70
2022-12-04T06:37:37.188Z,61.70
2022-12-04T06:38:08.654Z,61.70
2022-12-04T06:38:40.112Z,61.70
2022-12-04T06:39:16.931Z,62.40
2022-12-04T06:39:50.147Z,61.70
2022-12-04T06:40:21.617Z,61.70
2022-12-04T06:40:53.086Z,61.70
2022-12-04T06:41:24.555Z,61.70
2022-12-04T06:41:56.035Z,61.60
2022-12-04T06:42:27.529Z,61.60
2022-12-04T06:42:58.995Z,61.50
2022-12-04T06:43:30.479Z,61.70
2022-12-04T06:44:01.942Z,61.70
2022-12-04T06:44:33.413Z,61.70
2022-12-04T06:45:04.888Z,61.70
2022-12-04T06:45:36.382Z,61.70
2022-12-04T06:46:07.923Z,61.70
2022-12-04T06:46:45.110Z,61.70
2022-12-04T06:47:18.157Z,61.70
2022-12-04T06:47:49.626Z,61.60
2022-12-04T06:48:21.105Z,61.60
2022-12-04T06:48:52.600Z,61.60
2022-12-04T06:49:24.067Z,61.50
2022-12-04T06:49:55.805Z,61.50
2022-12-04T06:50:27.530Z,61.50
2022-12-04T06:50:59.035Z,61.50
2022-12-04T06:51:30.513Z,61.50
2022-12-04T06:52:02.059Z,61.50
2022-12-04T06:52:33.518Z,61.40
2022-12-04T06:53:08.320Z,61.40
2022-12-04T06:53:40.159Z,61.40
2022-12-04T06:54:11.625Z,61.30
2022-12-04T06:54:43.088Z,61.30
2022-12-04T06:55:14.551Z,61.30
2022-12-04T06:55:46.195Z,61.40
2022-12-04T06:56:17.659Z,61.40
2022-12-04T06:56:49.137Z,61.40
2022-12-04T06:57:20.614Z,61.30
2022-12-04T06:57:52.089Z,61.40
2022-12-04T06:58:23.565Z,61.40
2022-12-04T06:58:55.036Z,61.40
2022-12-04T06:59:26.564Z,61.30
2022-12-04T06:59:58.268Z,61.30
2022-12-04T07:00:29.849Z,61.20
2022-12-04T07:01:01.358Z,61.40
2022-12-04T07:01:32.983Z,61.30
2022-12-04T07:02:04.784Z,61.40
2022-12-04T07:02:36.333Z,61.30
2022-12-04T07:03:07.912Z,61.30
2022-12-04T07:03:39.385Z,61.40
2022-12-04T07:04:10.853Z,61.50
2022-12-04T07:04:42.389Z,61.40
2022-12-04T07:05:13.861Z,61.40
2022-12-04T07:05:45.320Z,61.40
2022-12-04T07:06:16.798Z,61.40
2022-12-04T07:06:48.259Z,61.50
2022-12-04T07:07:19.728Z,61.50
2022-12-04T07:07:51.231Z,61.50
2022-12-04T07:08:22.737Z,61.50
2022-12-04T07:08:54.202Z,61.50
2022-12-04T07:09:25.664Z,61.50
2022-12-04T07:09:57.379Z,61.50
2022-12-04T07:10:28.949Z,61.40
2022-12-04T07:11:00.664Z,61.40
2022-12-04T07:11:32.188Z,61.50
2022-12-04T07:12:03.689Z,61.50
2022-12-04T07:12:35.162Z,61.50
2022-12-04T07:13:06.631Z,61.50
2022-12-04T07:13:38.087Z,61.50
2022-12-04T07:14:09.564Z,61.50
2022-12-04T07:14:41.120Z,61.50
2022-12-04T07:15:12.608Z,61.50
2022-12-04T07:15:44.077Z,61.50
2022-12-04T07:16:15.625Z,61.50
2022-12-04T07:17:26.775Z,61.50
2022-12-04T07:17:58.344Z,61.50
2022-12-04T07:18:30.124Z,61.50
2022-12-04T07:19:01.688Z,61.60
2022-12-04T07:19:33.258Z,61.50
2022-12-04T07:20:04.797Z,61.50
2022-12-04T07:20:36.331Z,61.40
2022-12-04T07:21:07.855Z,61.40
2022-12-04T07:21:39.401Z,61.40
2022-12-04T07:22:10.973Z,61.40
2022-12-04T07:22:42.513Z,61.40
2022-12-04T07:23:14.065Z,61.40
2022-12-04T07:23:45.621Z,61.50
2022-12-04T07:24:17.155Z,61.40
2022-12-04T07:24:48.782Z,61.40
2022-12-04T07:25:20.341Z,61.30
2022-12-04T07:25:51.881Z,61.30
2022-12-04T07:26:23.432Z,61.30
2022-12-04T07:26:55.034Z,61.40
2022-12-04T07:27:26.600Z,61.50
2022-12-04T07:27:58.160Z,61.50
2022-12-04T07:28:29.713Z,61.50
2022-12-04T07:29:01.501Z,61.50
2022-12-04T07:29:33.067Z,61.60
2022-12-04T07:30:04.664Z,61.50
2022-12-04T07:30:36.243Z,61.50
2022-12-04T07:31:07.800Z,61.50
2022-12-04T07:31:39.405Z,61.40
2022-12-04T07:32:11.065Z,61.40
2022-12-04T07:32:42.827Z,61.40
2022-12-04T07:33:14.376Z,61.30
2022-12-04T07:33:45.921Z,61.20
2022-12-04T07:34:17.484Z,61.20
2022-12-04T07:34:49.042Z,61.20
2022-12-04T07:35:20.593Z,61.30
2022-12-04T07:35:52.178Z,61.40
2022-12-04T07:36:23.724Z,61.40
2022-12-04T07:36:55.323Z,61.20
2022-12-04T07:37:26.906Z,61.20
2022-12-04T07:37:58.497Z,61.20
2022-12-04T07:38:30.054Z,61.20
2022-12-04T07:39:01.670Z,61.20
2022-12-04T07:39:33.235Z,61.20
2022-12-04T07:40:04.790Z,61.20
2022-12-04T07:40:36.334Z,61.10
2022-12-04T07:41:07.871Z,61.20
2022-12-04T07:41:39.424Z,61.20
2022-12-04T07:42:10.993Z,61.20
2022-12-04T07:42:42.594Z,61.20
2022-12-04T07:43:14.147Z,61.30
2022-12-04T07:43:45.715Z,61.20
2022-12-04T07:44:17.268Z,61.30
2022-12-04T07:44:48.815Z,61.20
2022-12-04T07:45:20.376Z,61.30
2022-12-04T07:45:51.962Z,61.30
2022-12-04T07:46:23.831Z,61.20
2022-12-04T07:46:55.471Z,61.30
2022-12-04T07:47:27.022Z,61.20
2022-12-04T07:47:58.610Z,61.30
2022-12-04T07:48:33.289Z,61.30
2022-12-04T07:49:05.192Z,61.30
2022-12-04T07:49:36.746Z,61.30
2022-12-04T07:50:08.310Z,61.40
2022-12-04T07:50:39.869Z,62.10
2022-12-04T07:51:11.414Z,61.50
2022-12-04T07:51:43.126Z,61.50
2022-12-04T07:52:14.706Z,61.40
2022-12-04T07:52:46.266Z,61.50
2022-12-04T07:53:17.847Z,61.50
2022-12-04T07:53:49.396Z,61.40
2022-12-04T07:54:20.971Z,61.60
2022-12-04T07:54:52.561Z,61.50
2022-12-04T07:55:24.136Z,61.50
2022-12-04T07:55:55.693Z,61.50
2022-12-04T07:56:27.280Z,61.40
2022-12-04T07:56:58.848Z,61.40
2022-12-04T07:57:30.432Z,61.40
2022-12-04T07:58:02.018Z,61.40
2022-12-04T07:58:33.809Z,61.40
2022-12-04T07:59:05.449Z,61.50
2022-12-04T07:59:37.047Z,61.40
2022-12-04T08:00:08.604Z,62.20
2022-12-04T08:00:40.139Z,61.40
2022-12-04T08:01:11.732Z,61.40
2022-12-04T08:01:43.531Z,61.40
2022-12-04T08:02:15.203Z,61.40
2022-12-04T08:02:46.778Z,61.40
2022-12-04T08:03:18.322Z,61.40
2022-12-04T08:03:49.882Z,61.40
2022-12-04T08:04:21.470Z,61.50
2022-12-04T08:04:53.073Z,61.40
2022-12-04T08:05:24.644Z,61.40
2022-12-04T08:05:56.223Z,61.40
2022-12-04T08:06:27.877Z,61.40
2022-12-04T08:06:59.441Z,61.40
2022-12-04T08:07:31.094Z,61.50
2022-12-04T08:08:02.818Z,61.40
2022-12-04T08:08:34.446Z,61.50
2022-12-04T08:09:09.854Z,61.50
2022-12-04T08:09:41.927Z,61.50
2022-12-04T08:10:13.503Z,61.40
2022-12-04T08:10:45.049Z,61.40
2022-12-04T08:11:16.695Z,61.40
2022-12-04T08:11:48.301Z,61.40
2022-12-04T08:12:19.854Z,61.40
2022-12-04T08:12:51.394Z,61.30
2022-12-04T08:13:23.020Z,61.20
2022-12-04T08:13:54.599Z,61.30
2022-12-04T08:14:26.153Z,61.40
2022-12-04T08:14:57.703Z,61.30
2022-12-04T08:15:29.297Z,61.30
2022-12-04T08:16:00.861Z,61.20
2022-12-04T08:16:32.630Z,61.20
2022-12-04T08:17:04.364Z,61.20
2022-12-04T08:17:36.003Z,61.20
2022-12-04T08:18:07.581Z,62.00
2022-12-04T08:18:39.207Z,61.20
2022-12-04T08:19:10.843Z,61.20
2022-12-04T08:19:42.462Z,61.10
2022-12-04T08:20:14.014Z,61.20
2022-12-04T08:20:45.566Z,62.00
2022-12-04T08:21:17.122Z,61.20
2022-12-04T08:21:48.685Z,61.20
2022-12-04T08:22:24.881Z,61.20
2022-12-04T08:22:56.877Z,61.20
2022-12-04T08:23:28.434Z,61.20
2022-12-04T08:23:59.968Z,61.10
2022-12-04T08:24:31.644Z,61.20
2022-12-04T08:25:03.190Z,61.30
2022-12-04T08:25:34.728Z,61.30
2022-12-04T08:26:06.347Z,63.90
2022-12-04T08:26:37.915Z,66.50
2022-12-04T08:27:09.463Z,67.70
2022-12-04T08:27:45.954Z,67.10
2022-12-04T08:28:18.929Z,67.30
2022-12-04T08:28:50.491Z,68.10
2022-12-04T08:29:22.067Z,67.70
2022-12-04T08:29:53.854Z,66.90
2022-12-04T08:30:25.600Z,66.10
2022-12-04T08:30:57.235Z,65.90
2022-12-04T08:31:28.926Z,65.80
2022-12-04T08:32:00.675Z,65.60
2022-12-04T08:32:32.227Z,65.70
2022-12-04T08:33:03.745Z,65.70
2022-12-04T08:33:35.355Z,65.70
2022-12-04T08:34:06.922Z,65.70
2022-12-04T08:34:38.490Z,65.80
2022-12-04T08:35:10.106Z,65.90
2022-12-04T08:35:41.657Z,65.90
2022-12-04T08:36:13.197Z,65.90
2022-12-04T08:36:44.738Z,66.00
2022-12-04T08:37:16.299Z,65.90
2022-12-04T08:37:47.849Z,65.80
2022-12-04T08:38:19.430Z,65.70
2022-12-04T08:38:51.068Z,65.50
2022-12-04T08:39:22.838Z,65.20
2022-12-04T08:39:54.709Z,64.90
2022-12-04T08:40:26.520Z,64.90
2022-12-04T08:40:58.074Z,64.90
2022-12-04T08:41:29.628Z,64.80
2022-12-04T08:42:01.164Z,64.70
2022-12-04T08:42:32.745Z,64.80
2022-12-04T08:43:04.302Z,64.90
2022-12-04T08:43:35.905Z,65.00
2022-12-04T08:44:07.495Z,64.90
2022-12-04T08:44:39.088Z,64.90
2022-12-04T08:45:10.633Z,65.00
2022-12-04T08:45:42.193Z,65.00
2022-12-04T08:46:13.775Z,65.00
2022-12-04T08:46:45.423Z,65.10
2022-12-04T08:47:17.044Z,65.10
2022-12-04T08:47:52.466Z,65.20
2022-12-04T08:48:24.306Z,65.90
2022-12-04T08:48:56.003Z,65.20
2022-12-04T08:49:27.593Z,65.20
2022-12-04T08:49:59.139Z,65.20
2022-12-04T08:50:30.703Z,65.20
2022-12-04T08:51:02.406Z,62.70
2022-12-04T08:51:34.019Z,62.30
2022-12-04T08:52:05.581Z,62.30
2022-12-04T08:52:37.141Z,62.30
2022-12-04T08:53:08.709Z,62.40
2022-12-04T08:53:40.369Z,62.30
2022-12-04T08:54:11.927Z,62.20
2022-12-04T08:54:43.481Z,62.20
2022-12-04T08:55:15.048Z,62.20
2022-12-04T08:55:46.606Z,62.10
2022-12-04T08:56:18.228Z,62.00
2022-12-04T08:56:49.788Z,62.00
2022-12-04T08:57:21.323Z,62.00
2022-12-04T08:57:52.851Z,62.00
2022-12-04T08:58:24.426Z,62.00
2022-12-04T08:58:55.981Z,62.00
2022-12-04T08:59:27.536Z,59.10
2022-12-04T08:59:59.074Z,59.10
2022-12-04T09:00:30.660Z,59.10
2022-12-04T09:01:02.270Z,59.20
2022-12-04T09:01:33.908Z,59.10
2022-12-04T09:02:05.584Z,59.10
2022-12-04T09:02:37.255Z,59.10
2022-12-04T09:03:08.807Z,59.80
2022-12-04T09:03:40.353Z,59.20
2022-12-04T09:04:11.973Z,59.20
2022-12-04T09:04:43.637Z,59.20
2022-12-04T09:05:15.229Z,59.20
2022-12-04T09:05:46.884Z,59.90
2022-12-04T09:06:18.503Z,59.20
2022-12-04T09:06:50.060Z,59.10
2022-12-04T09:07:21.599Z,59.20
2022-12-04T09:07:53.200Z,59.10
2022-12-04T09:08:24.776Z,59.20
2022-12-04T09:08:56.325Z,59.20
2022-12-04T09:09:27.865Z,59.20
2022-12-04T09:09:59.760Z,59.20
2022-12-04T09:10:31.495Z,59.20
2022-12-04T09:11:03.046Z,59.20
2022-12-04T09:11:34.628Z,59.30
2022-12-04T09:12:06.263Z,59.30
2022-12-04T09:12:37.817Z,59.20
2022-12-04T09:13:09.417Z,59.20
2022-12-04T09:13:41.155Z,59.30
2022-12-04T09:14:12.722Z,59.30
2022-12-04T09:14:44.281Z,59.40
2022-12-04T09:15:15.829Z,59.30
2022-12-04T09:15:47.458Z,59.40
2022-12-04T09:16:19.165Z,59.40
2022-12-04T09:16:50.855Z,59.30
2022-12-04T09:17:22.396Z,59.40
2022-12-04T09:17:53.957Z,59.40
2022-12-04T09:18:25.523Z,59.40
2022-12-04T09:18:57.093Z,59.40
2022-12-04T09:19:28.673Z,59.40
2022-12-04T09:20:01.442Z,59.40
2022-12-04T09:20:33.175Z,59.40
2022-12-04T09:21:04.759Z,59.50
2022-12-04T09:21:36.324Z,59.40
2022-12-04T09:22:07.879Z,59.50
2022-12-04T09:23:02.362Z,59.50
2022-12-04T09:23:30.988Z,59.50
2022-12-04T09:24:02.551Z,59.60
2022-12-04T09:24:34.122Z,59.60
2022-12-04T09:25:05.686Z,59.60
2022-12-04T09:25:37.235Z,59.60
2022-12-04T09:26:08.816Z,59.60
2022-12-04T09:26:40.356Z,59.60
2022-12-04T09:27:14.902Z,59.50
2022-12-04T09:27:46.684Z,59.50
2022-12-04T09:28:18.251Z,59.60
2022-12-04T09:28:49.808Z,59.60
2022-12-04T09:29:21.372Z,59.50
2022-12-04T09:29:53.104Z,59.60
2022-12-04T09:30:24.992Z,59.50
2022-12-04T09:30:56.729Z,59.50
2022-12-04T09:31:28.391Z,59.50
2022-12-04T09:32:00.000Z,59.50
2022-12-04T09:32:31.547Z,59.50
2022-12-04T09:33:03.102Z,59.40
2022-12-04T09:33:34.645Z,59.40
2022-12-04T09:34:06.216Z,59.50
2022-12-04T09:34:37.778Z,59.50
2022-12-04T09:35:09.330Z,59.40
2022-12-04T09:35:40.883Z,59.40
2022-12-04T09:36:12.432Z,59.40
2022-12-04T09:36:44.003Z,59.50
2022-12-04T09:37:15.575Z,59.40
2022-12-04T09:37:47.156Z,59.40
2022-12-04T09:38:18.745Z,60.00
2022-12-04T09:38:50.285Z,59.50
2022-12-04T09:39:21.869Z,59.40
2022-12-04T09:39:53.704Z,59.40
2022-12-04T09:40:25.589Z,59.40
2022-12-04T09:40:57.268Z,59.40
2022-12-04T09:41:28.817Z,59.40
2022-12-04T09:42:00.368Z,59.40
2022-12-04T09:42:31.924Z,60.10
2022-12-04T09:43:03.538Z,59.80
2022-12-04T09:43:35.095Z,59.70
2022-12-04T09:44:06.681Z,60.40
2022-12-04T09:44:38.251Z,60.70
2022-12-04T09:45:09.794Z,60.30
2022-12-04T09:45:41.424Z,60.40
2022-12-04T09:46:13.027Z,60.20
2022-12-04T09:46:44.646Z,60.00
2022-12-04T09:47:16.775Z,60.00
2022-12-04T09:47:48.324Z,59.90
2022-12-04T09:48:19.868Z,59.90
2022-12-04T09:48:51.479Z,59.80
2022-12-04T09:49:23.025Z,59.90
2022-12-04T09:49:54.847Z,59.90
2022-12-04T09:50:26.656Z,60.00
2022-12-04T09:50:58.225Z,60.00
2022-12-04T09:51:29.872Z,60.00
2022-12-04T09:52:01.480Z,60.00
2022-12-04T09:52:33.041Z,60.00
2022-12-04T09:53:04.616Z,60.00
2022-12-04T09:53:36.146Z,60.10
2022-12-04T09:54:07.693Z,60.00
2022-12-04T09:54:39.281Z,60.10
2022-12-04T09:55:10.844Z,60.10
2022-12-04T09:55:42.406Z,60.10
2022-12-04T09:56:13.970Z,60.20
2022-12-04T09:56:45.564Z,60.10
2022-12-04T09:57:17.105Z,60.00
2022-12-04T09:57:48.740Z,60.10
2022-12-04T09:58:20.339Z,60.10
2022-12-04T09:58:51.994Z,60.20
2022-12-04T09:59:23.560Z,60.00
2022-12-04T09:59:55.232Z,60.00
2022-12-04T10:00:27.040Z,60.10
2022-12-04T10:00:58.620Z,60.00
2022-12-04T10:01:30.264Z,60.00
2022-12-04T10:02:01.850Z,60.10
2022-12-04T10:02:33.556Z,60.10
2022-12-04T10:03:05.367Z,60.20
2022-12-04T10:03:37.080Z,60.10
2022-12-04T10:04:08.766Z,60.20
2022-12-04T10:04:40.423Z,60.20
2022-12-04T10:05:12.066Z,60.20
2022-12-04T10:05:43.635Z,60.20
2022-12-04T10:06:15.194Z,60.20
2022-12-04T10:06:46.762Z,60.20
2022-12-04T10:07:18.316Z,60.20
2022-12-04T10:07:49.939Z,60.20
2022-12-04T10:08:21.619Z,60.10
2022-12-04T10:08:53.243Z,60.10
2022-12-04T10:09:24.803Z,60.10
2022-12-04T10:09:56.668Z,60.00
2022-12-04T10:10:28.420Z,60.10
2022-12-04T10:10:59.984Z,60.10
2022-12-04T10:11:32.995Z,60.10
2022-12-04T10:12:04.839Z,60.10
2022-12-04T10:12:36.393Z,60.20
2022-12-04T10:13:08.055Z,60.10
2022-12-04T10:13:39.720Z,60.10
2022-12-04T10:14:11.305Z,60.10
2022-12-04T10:14:42.879Z,60.20
2022-12-04T10:15:14.448Z,60.20
2022-12-04T10:15:46.037Z,60.20
2022-12-04T10:16:17.677Z,60.20
2022-12-04T10:16:49.406Z,60.20
2022-12-04T10:17:21.093Z,60.20
2022-12-04T10:17:52.647Z,60.30
2022-12-04T10:18:24.213Z,60.20
2022-12-04T10:18:55.757Z,60.20
2022-12-04T10:19:27.291Z,60.30
2022-12-04T10:19:59.030Z,60.30
2022-12-04T10:20:30.689Z,60.40
2022-12-04T10:21:02.259Z,60.20
2022-12-04T10:21:33.831Z,60.20
2022-12-04T10:22:05.400Z,60.20
2022-12-04T10:22:36.957Z,60.20
2022-12-04T10:23:13.560Z,60.20
2022-12-04T10:23:45.640Z,60.20
2022-12-04T10:24:17.177Z,60.20
2022-12-04T10:24:48.743Z,60.30
2022-12-04T10:25:20.325Z,60.30
2022-12-04T10:25:51.873Z,60.20
2022-12-04T10:26:23.492Z,60.20
2022-12-04T10:26:55.051Z,60.20
2022-12-04T10:27:26.599Z,60.20
2022-12-04T10:27:58.132Z,60.20
2022-12-04T10:28:29.737Z,60.10
2022-12-04T10:29:01.314Z,60.10
2022-12-04T10:29:32.873Z,60.10
2022-12-04T10:30:04.414Z,60.00
2022-12-04T10:30:35.981Z,60.00
2022-12-04T10:31:07.635Z,60.10
2022-12-04T10:31:39.283Z,60.00
2022-12-04T10:32:10.896Z,60.00
2022-12-04T10:32:42.451Z,59.90
2022-12-04T10:33:14.084Z,60.00
2022-12-04T10:33:45.663Z,59.90
2022-12-04T10:34:17.224Z,60.20
2022-12-04T10:34:48.783Z,60.10
2022-12-04T10:35:20.323Z,60.00
2022-12-04T10:35:51.891Z,59.90
2022-12-04T10:36:23.447Z,60.10
2022-12-04T10:36:55.012Z,60.00
2022-12-04T10:37:26.567Z,60.00
2022-12-04T10:37:58.174Z,59.90
2022-12-04T10:38:29.740Z,60.10
2022-12-04T10:39:01.340Z,60.70
2022-12-04T10:39:32.905Z,62.90
2022-12-04T10:40:04.506Z,62.00
2022-12-04T10:40:36.089Z,61.50
2022-12-04T10:41:11.719Z,62.20
2022-12-04T10:41:46.366Z,63.30
2022-12-04T10:42:17.927Z,63.00
2022-12-04T10:42:49.506Z,62.70
2022-12-04T10:43:21.059Z,62.40
2022-12-04T10:43:52.663Z,61.80
2022-12-04T10:44:24.321Z,61.50
2022-12-04T10:44:55.866Z,61.40
2022-12-04T10:45:27.408Z,61.40
2022-12-04T10:45:58.956Z,61.40
2022-12-04T10:46:30.599Z,61.40
2022-12-04T10:47:02.346Z,61.40
2022-12-04T10:47:33.960Z,61.50
2022-12-04T10:48:05.512Z,61.70
2022-12-04T10:48:37.059Z,61.70
2022-12-04T10:49:08.624Z,61.80
2022-12-04T10:49:40.257Z,61.90
2022-12-04T10:50:11.800Z,62.20
2022-12-04T10:50:43.498Z,62.30
2022-12-04T10:51:15.104Z,62.40
2022-12-04T10:51:46.703Z,62.40
2022-12-04T10:52:18.269Z,62.40
2022-12-04T10:52:49.828Z,62.30
2022-12-04T10:53:21.427Z,62.30
2022-12-04T10:53:53.000Z,62.50